Disclaimer

Please do not use the information listed here in-flight or in-navigation, as they are not provided to us by the airports but are provided by volunteers, so they might be outdated.

Search


Regions


Airport information page

Radio informations:
Tower (TWR) - 120.5 MHz
OPS - 259.025 MHz
ZONE - 127.75 MHz
Ground (GND) - 379.9 MHz
Automatic Terminal Information Service (ATIS) - 369.475 MHz
Approach (APP) - 127.75 MHz

Airport informations:
Latitude: 54° 17' 32.58" N
Longitude: 001° 32' 07.44" W
Elevation: 132 feet - 40 meters
Operating hours: Remarks
Operating agency: Military
Timezone: UTC 0(+1DT) - Last Sunday in March to last Sunday in October
Fuel: Jet A1+, Jet A1 with icing inhibitor.

100/130 MIL Spec, low lead, aviation gasoline (BLUE)

Runway information:
16/34 - 7520 x 150 feet< - >2292 x 46 meters

Recent METARs:
EGXE 180850Z AUTO 35002KT 0100 FG VV/// 02/02 Q1033
EGXE 180850Z AUTO 35002KT 0100 FG VV/// 02/02 Q1033
EGXE 180950Z AUTO 34002KT 0150 FG VV/// 03/03 Q1033

Airport on the map: